createdAt,value
2023-03-23T15:58:12.927Z,4.93
2023-03-23T16:00:41.346Z,4.43
2023-03-23T16:03:13.806Z,4.50
2023-03-23T16:05:41.287Z,4.55
2023-03-23T16:08:11.777Z,4.15
2023-03-23T16:10:38.954Z,4.95
2023-03-23T16:13:06.234Z,5.03
2023-03-23T16:15:32.959Z,4.90
2023-03-23T16:17:59.795Z,5.35
2023-03-23T16:20:29.350Z,5.70
2023-03-23T16:22:56.513Z,4.57
2023-03-23T16:25:23.267Z,4.45
2023-03-23T16:27:52.329Z,4.65
2023-03-23T16:30:28.767Z,5.15
2023-03-23T16:32:57.111Z,4.75
2023-03-23T16:35:25.669Z,4.75
2023-03-23T16:38:07.671Z,4.65
2023-03-23T16:40:36.503Z,4.20
2023-03-23T16:43:09.191Z,4.68
2023-03-23T16:45:38.190Z,5.10
2023-03-23T16:48:06.062Z,4.32
2023-03-23T16:50:33.847Z,5.22
2023-03-23T16:53:01.691Z,5.53
2023-03-23T16:55:28.468Z,5.22
2023-03-23T16:58:05.255Z,6.10
2023-03-23T17:00:40.997Z,5.53
2023-03-23T17:03:08.540Z,5.43
2023-03-23T17:05:37.246Z,5.40
2023-03-23T17:08:04.893Z,5.22
2023-03-23T17:10:32.313Z,5.57
2023-03-23T17:12:59.360Z,5.43
2023-03-23T17:15:26.504Z,4.25
2023-03-23T17:17:55.058Z,5.05
2023-03-23T17:20:22.944Z,4.68
2023-03-23T17:22:49.880Z,5.43
2023-03-23T17:25:16.719Z,5.50
2023-03-23T17:27:43.467Z,5.45
2023-03-23T17:30:11.249Z,5.65
2023-03-23T17:32:38.503Z,6.47
2023-03-23T17:35:06.952Z,5.57
2023-03-23T17:37:35.081Z,5.32
2023-03-23T17:40:02.275Z,5.18
2023-03-23T17:42:30.364Z,5.10
2023-03-23T17:44:57.109Z,5.20
2023-03-23T17:47:24.110Z,5.65
2023-03-23T17:49:51.315Z,4.78
2023-03-23T17:52:18.290Z,3.67
2023-03-23T17:54:45.228Z,3.95
2023-03-23T17:57:12.063Z,3.95
2023-03-23T17:59:38.956Z,3.70
2023-03-23T18:02:06.182Z,3.90
2023-03-23T18:04:33.036Z,3.67
2023-03-23T18:07:00.389Z,3.80
2023-03-23T18:09:27.199Z,4.05
2023-03-23T18:11:53.964Z,3.90
2023-03-23T18:14:20.796Z,3.42
2023-03-23T18:16:48.262Z,3.35
2023-03-23T18:19:15.330Z,3.60
2023-03-23T18:21:44.532Z,3.20
2023-03-23T18:24:12.608Z,4.00
2023-03-23T18:26:39.845Z,4.00
2023-03-23T18:29:06.550Z,3.75
2023-03-23T18:31:34.189Z,4.22
2023-03-23T18:34:01.048Z,4.15
2023-03-23T18:36:28.469Z,4.40
2023-03-23T18:38:57.035Z,4.45
2023-03-23T18:41:24.476Z,4.32
2023-03-23T18:43:51.432Z,4.10
2023-03-23T18:46:18.461Z,4.53
2023-03-23T18:48:45.359Z,4.40
2023-03-23T18:51:12.780Z,4.85
2023-03-23T18:53:40.298Z,4.45
2023-03-23T18:56:09.041Z,4.60
2023-03-23T18:58:36.247Z,4.07
2023-03-23T19:01:08.844Z,5.18
2023-03-23T19:03:36.342Z,4.07
2023-03-23T19:06:04.567Z,4.65
2023-03-23T19:08:31.796Z,4.72
2023-03-23T19:11:01.552Z,4.22
2023-03-23T19:13:29.962Z,4.13
2023-03-23T19:15:57.091Z,4.65
2023-03-23T19:18:23.787Z,4.20
2023-03-23T19:23:22.179Z,5.13
2023-03-23T19:25:49.328Z,4.32
2023-03-23T19:30:49.844Z,4.75
2023-03-23T19:33:17.028Z,4.30
2023-03-23T19:35:45.637Z,4.97
2023-03-23T19:38:13.105Z,4.70
2023-03-23T19:40:42.264Z,4.38
2023-03-23T19:43:09.854Z,4.15
2023-03-23T19:45:37.017Z,5.38
2023-03-23T19:48:04.125Z,4.22
2023-03-23T19:50:32.846Z,4.53
2023-03-23T19:53:00.502Z,4.43
2023-03-23T19:55:27.816Z,5.50
2023-03-23T19:57:55.105Z,4.68
2023-03-23T20:00:24.014Z,5.13
2023-03-23T20:02:51.808Z,5.47
2023-03-23T20:05:18.798Z,5.32
2023-03-23T20:07:51.528Z,5.60
2023-03-23T20:10:19.122Z,6.20
2023-03-23T20:12:46.643Z,5.15
2023-03-23T20:15:13.365Z,4.93
2023-03-23T20:17:40.153Z,5.43
2023-03-23T20:20:10.275Z,5.57
2023-03-23T20:22:38.049Z,5.20
2023-03-23T20:25:07.356Z,6.45
2023-03-23T20:27:35.082Z,5.75
2023-03-23T20:30:04.196Z,6.03
2023-03-23T20:32:35.193Z,5.90
2023-03-23T20:35:06.379Z,6.23
2023-03-23T20:37:34.772Z,6.03
2023-03-23T20:40:02.494Z,5.63
2023-03-23T20:42:29.665Z,5.72
2023-03-23T20:44:56.952Z,5.80
2023-03-23T20:47:23.764Z,5.00
2023-03-23T20:49:53.035Z,5.90
2023-03-23T20:52:21.016Z,5.38
2023-03-23T20:54:49.116Z,5.82
2023-03-23T20:57:16.006Z,5.50
2023-03-23T20:59:42.801Z,5.90
2023-03-23T21:02:15.289Z,6.63
2023-03-23T21:04:42.463Z,5.82
2023-03-23T21:07:10.782Z,6.28
2023-03-23T21:09:37.659Z,6.63
2023-03-23T21:12:06.192Z,6.75
2023-03-23T21:14:33.815Z,6.82
2023-03-23T21:17:01.583Z,6.90
2023-03-23T21:19:29.926Z,6.45
2023-03-23T21:21:57.352Z,6.20
2023-03-23T21:24:26.526Z,5.63
2023-03-23T21:26:54.234Z,6.60
2023-03-23T21:29:23.982Z,6.13
2023-03-23T21:32:01.136Z,6.35
2023-03-23T21:34:34.484Z,5.40
2023-03-23T21:37:01.362Z,5.93
2023-03-23T21:39:28.284Z,5.57
2023-03-23T21:41:55.252Z,5.00
2023-03-23T21:44:22.249Z,5.50
2023-03-23T21:46:52.167Z,5.22
2023-03-23T21:49:19.005Z,5.18
2023-03-23T21:51:45.806Z,5.43
2023-03-23T21:54:12.604Z,4.65
2023-03-23T21:56:39.758Z,5.00
2023-03-23T21:59:07.715Z,6.00
2023-03-23T22:01:36.777Z,5.15
2023-03-23T22:04:04.531Z,4.90
2023-03-23T22:06:34.197Z,4.88
2023-03-23T22:09:07.390Z,4.70
2023-03-23T22:11:35.162Z,4.90
2023-03-23T22:14:03.204Z,4.95
2023-03-23T22:16:30.329Z,4.47
2023-03-23T22:19:00.306Z,4.43
2023-03-23T22:21:27.910Z,5.05
2023-03-23T22:23:57.629Z,5.38
2023-03-23T22:26:27.161Z,4.63
2023-03-23T22:28:54.842Z,4.75
2023-03-23T22:31:24.908Z,4.68
2023-03-23T22:33:54.942Z,4.60
2023-03-23T22:36:23.579Z,4.70
2023-03-23T22:38:51.471Z,4.65
2023-03-23T22:41:23.406Z,4.97
2023-03-23T22:43:50.217Z,4.65
2023-03-23T22:46:17.876Z,4.50
2023-03-23T22:48:45.730Z,5.05
2023-03-23T22:51:15.071Z,3.95
2023-03-23T22:53:42.082Z,4.18
2023-03-23T22:56:09.413Z,4.85
2023-03-23T22:58:36.240Z,4.78
2023-03-23T23:01:09.611Z,4.15
2023-03-23T23:03:36.954Z,4.47
2023-03-23T23:06:04.431Z,3.80
2023-03-23T23:08:32.833Z,4.70
2023-03-23T23:11:01.972Z,4.65
2023-03-23T23:13:31.874Z,4.30
2023-03-23T23:16:02.030Z,4.25
2023-03-23T23:18:30.766Z,4.20
2023-03-23T23:20:59.684Z,4.70
2023-03-23T23:23:27.980Z,4.25
2023-03-23T23:25:55.070Z,3.95
2023-03-23T23:28:22.794Z,4.40
2023-03-23T23:30:50.948Z,5.03
2023-03-23T23:33:18.881Z,4.90
2023-03-23T23:35:46.586Z,4.10
2023-03-23T23:38:14.222Z,4.70
2023-03-23T23:40:42.878Z,4.82
2023-03-23T23:43:16.863Z,4.20
2023-03-23T23:45:43.837Z,5.00
2023-03-23T23:48:11.349Z,4.25
2023-03-23T23:50:38.090Z,4.80
2023-03-23T23:53:09.739Z,4.82
2023-03-23T23:58:03.232Z,5.10
